sensor_id;sensor_type;location;lat;lon;timestamp;pressure;altitude;pressure_sealevel;temperature
74750;BMP280;63269;53.330;-6.288;2023-07-29T00:00:30;99875.88;;;22.86
74750;BMP280;63269;53.330;-6.288;2023-07-29T00:02:56;99867.13;;;22.86
74750;BMP280;63269;53.330;-6.288;2023-07-29T00:05:21;99863.72;;;22.85
74750;BMP280;63269;53.330;-6.288;2023-07-29T00:07:47;99862.28;;;22.84
74750;BMP280;63269;53.330;-6.288;2023-07-29T00:10:12;99858.13;;;22.83
74750;BMP280;63269;53.330;-6.288;2023-07-29T00:12:37;99860.78;;;22.83
74750;BMP280;63269;53.330;-6.288;2023-07-29T00:15:03;99860.78;;;22.83
74750;BMP280;63269;53.330;-6.288;2023-07-29T00:17:28;99858.88;;;22.84
74750;BMP280;63269;53.330;-6.288;2023-07-29T00:19:54;99858.88;;;22.84
74750;BMP280;63269;53.330;-6.288;2023-07-29T00:22:19;99855.19;;;22.81
74750;BMP280;63269;53.330;-6.288;2023-07-29T00:24:45;99859.78;;;22.81
74750;BMP280;63269;53.330;-6.288;2023-07-29T00:27:16;99854.44;;;22.81
74750;BMP280;63269;53.330;-6.288;2023-07-29T00:29:41;99854.44;;;22.81
74750;BMP280;63269;53.330;-6.288;2023-07-29T00:32:07;99854.44;;;22.81
74750;BMP280;63269;53.330;-6.288;2023-07-29T00:34:32;99854.44;;;22.81
74750;BMP280;63269;53.330;-6.288;2023-07-29T00:36:57;99857.59;;;22.79
74750;BMP280;63269;53.330;-6.288;2023-07-29T00:39:23;99857.59;;;22.79
74750;BMP280;63269;53.330;-6.288;2023-07-29T00:41:48;99851.50;;;22.79
74750;BMP280;63269;53.330;-6.288;2023-07-29T00:44:14;99852.22;;;22.79
74750;BMP280;63269;53.330;-6.288;2023-07-29T00:46:40;99858.34;;;22.80
74750;BMP280;63269;53.330;-6.288;2023-07-29T00:49:06;99850.31;;;22.80
74750;BMP280;63269;53.330;-6.288;2023-07-29T00:51:32;99853.00;;;22.80
74750;BMP280;63269;53.330;-6.288;2023-07-29T00:53:57;99853.00;;;22.80
74750;BMP280;63269;53.330;-6.288;2023-07-29T00:56:23;99852.22;;;22.79
74750;BMP280;63269;53.330;-6.288;2023-07-29T00:58:48;99853.72;;;22.80
74750;BMP280;63269;53.330;-6.288;2023-07-29T01:01:14;99843.03;;;22.80
74750;BMP280;63269;53.330;-6.288;2023-07-29T01:03:40;99844.97;;;22.80
74750;BMP280;63269;53.330;-6.288;2023-07-29T01:06:17;99850.31;;;22.80
74750;BMP280;63269;53.330;-6.288;2023-07-29T01:11:44;99856.66;;;22.82
74750;BMP280;63269;53.330;-6.288;2023-07-29T01:17:03;99845.69;;;22.80
74750;BMP280;63269;53.330;-6.288;2023-07-29T01:22:13;99848.38;;;22.80
74750;BMP280;63269;53.330;-6.288;2023-07-29T01:24:39;99839.31;;;22.78
74750;BMP280;63269;53.330;-6.288;2023-07-29T01:27:05;99842.00;;;22.78
74750;BMP280;63269;53.330;-6.288;2023-07-29T01:29:30;99850.31;;;22.80
74750;BMP280;63269;53.330;-6.288;2023-07-29T01:32:01;99850.31;;;22.80
74750;BMP280;63269;53.330;-6.288;2023-07-29T01:35:22;99846.44;;;22.81
74750;BMP280;63269;53.330;-6.288;2023-07-29T01:37:25;99835.72;;;22.81
74750;BMP280;63269;53.330;-6.288;2023-07-29T01:39:54;99836.94;;;22.80
74750;BMP280;63269;53.330;-6.288;2023-07-29T01:42:21;99833.53;;;22.79
74750;BMP280;63269;53.330;-6.288;2023-07-29T01:44:47;99833.53;;;22.79
74750;BMP280;63269;53.330;-6.288;2023-07-29T01:47:13;99829.38;;;22.78
74750;BMP280;63269;53.330;-6.288;2023-07-29T01:49:38;99821.38;;;22.78
74750;BMP280;63269;53.330;-6.288;2023-07-29T01:52:03;99821.38;;;22.78
74750;BMP280;63269;53.330;-6.288;2023-07-29T01:54:29;99824.31;;;22.80
74750;BMP280;63269;53.330;-6.288;2023-07-29T01:56:54;99832.78;;;22.79
74750;BMP280;63269;53.330;-6.288;2023-07-29T01:59:20;99834.28;;;22.80
74750;BMP280;63269;53.330;-6.288;2023-07-29T02:01:45;99834.28;;;22.80
74750;BMP280;63269;53.330;-6.288;2023-07-29T02:04:11;99832.78;;;22.79
74750;BMP280;63269;53.330;-6.288;2023-07-29T02:06:37;99824.78;;;22.79
74750;BMP280;63269;53.330;-6.288;2023-07-29T02:09:02;99824.78;;;22.79
74750;BMP280;63269;53.330;-6.288;2023-07-29T02:11:29;99825.25;;;22.77
74750;BMP280;63269;53.330;-6.288;2023-07-29T02:13:55;99837.41;;;22.78
74750;BMP280;63269;53.330;-6.288;2023-07-29T02:16:21;99837.41;;;22.78
74750;BMP280;63269;53.330;-6.288;2023-07-29T02:18:47;99829.38;;;22.78
74750;BMP280;63269;53.330;-6.288;2023-07-29T02:21:13;99826.72;;;22.78
74750;BMP280;63269;53.330;-6.288;2023-07-29T02:23:38;99830.59;;;22.77
74750;BMP280;63269;53.330;-6.288;2023-07-29T02:26:03;99844.69;;;22.78
74750;BMP280;63269;53.330;-6.288;2023-07-29T02:28:29;99833.97;;;22.78
74750;BMP280;63269;53.330;-6.288;2023-07-29T02:31:17;99840.09;;;22.78
74750;BMP280;63269;53.330;-6.288;2023-07-29T02:33:43;99840.09;;;22.78
74750;BMP280;63269;53.330;-6.288;2023-07-29T02:36:09;99843.25;;;22.77
74750;BMP280;63269;53.330;-6.288;2023-07-29T02:38:34;99845.44;;;22.78
74750;BMP280;63269;53.330;-6.288;2023-07-29T02:41:00;99837.13;;;22.76
74750;BMP280;63269;53.330;-6.288;2023-07-29T02:43:25;99837.13;;;22.76
74750;BMP280;63269;53.330;-6.288;2023-07-29T02:45:51;99826.91;;;22.75
74750;BMP280;63269;53.330;-6.288;2023-07-29T02:48:16;99837.13;;;22.76
74750;BMP280;63269;53.330;-6.288;2023-07-29T02:50:41;99829.59;;;22.75
74750;BMP280;63269;53.330;-6.288;2023-07-29T02:53:07;99837.59;;;22.75
74750;BMP280;63269;53.330;-6.288;2023-07-29T02:55:32;99831.53;;;22.74
74750;BMP280;63269;53.330;-6.288;2023-07-29T02:57:57;99827.66;;;22.75
74750;BMP280;63269;53.330;-6.288;2023-07-29T03:00:23;99827.66;;;22.75
74750;BMP280;63269;53.330;-6.288;2023-07-29T03:02:49;99825.44;;;22.74
74750;BMP280;63269;53.330;-6.288;2023-07-29T03:05:15;99825.44;;;22.74
74750;BMP280;63269;53.330;-6.288;2023-07-29T03:07:41;99821.56;;;22.75
74750;BMP280;63269;53.330;-6.288;2023-07-29T03:10:06;99818.16;;;22.74
74750;BMP280;63269;53.330;-6.288;2023-07-29T03:12:32;99818.16;;;22.74
74750;BMP280;63269;53.330;-6.288;2023-07-29T03:14:57;99821.56;;;22.75
74750;BMP280;63269;53.330;-6.288;2023-07-29T03:17:23;99821.56;;;22.75
74750;BMP280;63269;53.330;-6.288;2023-07-29T03:19:49;99825.44;;;22.74
74750;BMP280;63269;53.330;-6.288;2023-07-29T03:22:15;99814.03;;;22.73
74750;BMP280;63269;53.330;-6.288;2023-07-29T03:24:40;99807.19;;;22.72
74750;BMP280;63269;53.330;-6.288;2023-07-29T03:27:07;99812.53;;;22.72
74750;BMP280;63269;53.330;-6.288;2023-07-29T03:29:35;99799.94;;;22.73
74750;BMP280;63269;53.330;-6.288;2023-07-29T03:32:00;99799.19;;;22.72
74750;BMP280;63269;53.330;-6.288;2023-07-29T03:34:26;99810.63;;;22.73
74750;BMP280;63269;53.330;-6.288;2023-07-29T03:36:51;99810.63;;;22.73
74750;BMP280;63269;53.330;-6.288;2023-07-29T03:39:16;99810.63;;;22.73
74750;BMP280;63269;53.330;-6.288;2023-07-29T03:41:42;99798.91;;;22.70
74750;BMP280;63269;53.330;-6.288;2023-07-29T03:44:07;99810.34;;;22.71
74750;BMP280;63269;53.330;-6.288;2023-07-29T03:46:33;99813.75;;;22.71
74750;BMP280;63269;53.330;-6.288;2023-07-29T03:48:58;99815.22;;;22.72
74750;BMP280;63269;53.330;-6.288;2023-07-29T03:51:24;99817.16;;;22.72
74750;BMP280;63269;53.330;-6.288;2023-07-29T03:53:50;99817.16;;;22.72
74750;BMP280;63269;53.330;-6.288;2023-07-29T03:56:15;99811.56;;;22.70
74750;BMP280;63269;53.330;-6.288;2023-07-29T03:58:41;99816.16;;;22.69
74750;BMP280;63269;53.330;-6.288;2023-07-29T04:01:06;99808.91;;;22.70
74750;BMP280;63269;53.330;-6.288;2023-07-29T04:03:33;99810.09;;;22.69
74750;BMP280;63269;53.330;-6.288;2023-07-29T04:05:59;99807.41;;;22.69
74750;BMP280;63269;53.330;-6.288;2023-07-29T04:08:24;99818.34;;;22.71
74750;BMP280;63269;53.330;-6.288;2023-07-29T04:10:50;99818.34;;;22.71
74750;BMP280;63269;53.330;-6.288;2023-07-29T04:13:15;99812.00;;;22.68
74750;BMP280;63269;53.330;-6.288;2023-07-29T04:15:41;99812.00;;;22.68
74750;BMP280;63269;53.330;-6.288;2023-07-29T04:18:06;99815.91;;;22.67
74750;BMP280;63269;53.330;-6.288;2023-07-29T04:20:32;99811.28;;;22.68
74750;BMP280;63269;53.330;-6.288;2023-07-29T04:22:58;99811.28;;;22.68
74750;BMP280;63269;53.330;-6.288;2023-07-29T04:25:24;99811.28;;;22.68
74750;BMP280;63269;53.330;-6.288;2023-07-29T04:27:49;99812.00;;;22.68
74750;BMP280;63269;53.330;-6.288;2023-07-29T04:30:15;99812.00;;;22.68
74750;BMP280;63269;53.330;-6.288;2023-07-29T04:32:40;99816.38;;;22.66
74750;BMP280;63269;53.330;-6.288;2023-07-29T04:35:08;99805.19;;;22.67
74750;BMP280;63269;53.330;-6.288;2023-07-29T04:37:33;99809.06;;;22.66
74750;BMP280;63269;53.330;-6.288;2023-07-29T04:39:58;99809.06;;;22.66
74750;BMP280;63269;53.330;-6.288;2023-07-29T04:42:24;99814.41;;;22.66
74750;BMP280;63269;53.330;-6.288;2023-07-29T04:44:49;99823.91;;;22.67
74750;BMP280;63269;53.330;-6.288;2023-07-29T04:47:15;99820.50;;;22.67
74750;BMP280;63269;53.330;-6.288;2023-07-29T04:49:40;99820.50;;;22.67
74750;BMP280;63269;53.330;-6.288;2023-07-29T04:52:06;99825.09;;;22.66
74750;BMP280;63269;53.330;-6.288;2023-07-29T04:54:31;99817.09;;;22.66
74750;BMP280;63269;53.330;-6.288;2023-07-29T04:56:56;99820.97;;;22.65
74750;BMP280;63269;53.330;-6.288;2023-07-29T04:59:22;99816.38;;;22.66
74750;BMP280;63269;53.330;-6.288;2023-07-29T05:01:47;99827.78;;;22.66
74750;BMP280;63269;53.330;-6.288;2023-07-29T05:04:13;99827.78;;;22.66
74750;BMP280;63269;53.330;-6.288;2023-07-29T05:06:38;99817.09;;;22.66
74750;BMP280;63269;53.330;-6.288;2023-07-29T05:09:18;99817.09;;;22.66
74750;BMP280;63269;53.330;-6.288;2023-07-29T05:11:44;99814.41;;;22.66
74750;BMP280;63269;53.330;-6.288;2023-07-29T05:14:17;99818.31;;;22.65
74750;BMP280;63269;53.330;-6.288;2023-07-29T05:16:43;99817.81;;;22.67
74750;BMP280;63269;53.330;-6.288;2023-07-29T05:19:08;99817.81;;;22.67
74750;BMP280;63269;53.330;-6.288;2023-07-29T05:21:34;99819.75;;;22.66
74750;BMP280;63269;53.330;-6.288;2023-07-29T05:23:59;99819.75;;;22.66
74750;BMP280;63269;53.330;-6.288;2023-07-29T05:26:25;99812.97;;;22.65
74750;BMP280;63269;53.330;-6.288;2023-07-29T05:28:50;99813.72;;;22.66
74750;BMP280;63269;53.330;-6.288;2023-07-29T05:31:16;99802.25;;;22.65
74750;BMP280;63269;53.330;-6.288;2023-07-29T05:33:41;99802.25;;;22.65
74750;BMP280;63269;53.330;-6.288;2023-07-29T05:36:06;99810.28;;;22.65
74750;BMP280;63269;53.330;-6.288;2023-07-29T05:38:32;99810.28;;;22.65
74750;BMP280;63269;53.330;-6.288;2023-07-29T05:40:57;99803.47;;;22.64
74750;BMP280;63269;53.330;-6.288;2023-07-29T05:43:25;99812.22;;;22.64
74750;BMP280;63269;53.330;-6.288;2023-07-29T05:45:51;99804.94;;;22.65
74750;BMP280;63269;53.330;-6.288;2023-07-29T05:48:16;99780.88;;;22.65
74750;BMP280;63269;53.330;-6.288;2023-07-29T05:50:42;99780.88;;;22.65
74750;BMP280;63269;53.330;-6.288;2023-07-29T05:53:07;99789.66;;;22.66
74750;BMP280;63269;53.330;-6.288;2023-07-29T05:55:33;99776.75;;;22.64
74750;BMP280;63269;53.330;-6.288;2023-07-29T05:57:58;99795.47;;;22.64
74750;BMP280;63269;53.330;-6.288;2023-07-29T06:00:23;99786.22;;;22.65
74750;BMP280;63269;53.330;-6.288;2023-07-29T06:02:49;99803.03;;;22.66
74750;BMP280;63269;53.330;-6.288;2023-07-29T06:05:14;99807.88;;;22.67
74750;BMP280;63269;53.330;-6.288;2023-07-29T06:07:40;99802.25;;;22.65
74750;BMP280;63269;53.330;-6.288;2023-07-29T06:10:09;99802.25;;;22.65
74750;BMP280;63269;53.330;-6.288;2023-07-29T06:12:37;99801.53;;;22.64
74750;BMP280;63269;53.330;-6.288;2023-07-29T06:15:03;99798.38;;;22.66
74750;BMP280;63269;53.330;-6.288;2023-07-29T06:17:28;99798.38;;;22.66
74750;BMP280;63269;53.330;-6.288;2023-07-29T06:19:54;99800.34;;;22.66
74750;BMP280;63269;53.330;-6.288;2023-07-29T06:22:19;99815.63;;;22.65
74750;BMP280;63269;53.330;-6.288;2023-07-29T06:24:45;99807.59;;;22.65
74750;BMP280;63269;53.330;-6.288;2023-07-29T06:27:10;99822.44;;;22.66
74750;BMP280;63269;53.330;-6.288;2023-07-29T06:29:35;99808.38;;;22.66
74750;BMP280;63269;53.330;-6.288;2023-07-29T06:32:01;99808.38;;;22.66
74750;BMP280;63269;53.330;-6.288;2023-07-29T06:34:26;99799.59;;;22.65
74750;BMP280;63269;53.330;-6.288;2023-07-29T06:36:52;99811.03;;;22.66
74750;BMP280;63269;53.330;-6.288;2023-07-29T06:39:17;99811.03;;;22.66
74750;BMP280;63269;53.330;-6.288;2023-07-29T06:41:43;99824.84;;;22.64
74750;BMP280;63269;53.330;-6.288;2023-07-29T06:44:08;99812.97;;;22.65
74750;BMP280;63269;53.330;-6.288;2023-07-29T06:46:33;99810.28;;;22.65
74750;BMP280;63269;53.330;-6.288;2023-07-29T06:48:59;99811.75;;;22.66
74750;BMP280;63269;53.330;-6.288;2023-07-29T06:51:24;99811.75;;;22.66
74750;BMP280;63269;53.330;-6.288;2023-07-29T06:53:49;99814.91;;;22.64
74750;BMP280;63269;53.330;-6.288;2023-07-29T06:56:15;99823.66;;;22.65
74750;BMP280;63269;53.330;-6.288;2023-07-29T06:58:40;99818.31;;;22.65
74750;BMP280;63269;53.330;-6.288;2023-07-29T07:01:06;99832.41;;;22.66
74750;BMP280;63269;53.330;-6.288;2023-07-29T07:03:31;99838.94;;;22.64
74750;BMP280;63269;53.330;-6.288;2023-07-29T07:05:56;99820.97;;;22.65
74750;BMP280;63269;53.330;-6.288;2023-07-29T07:08:22;99823.66;;;22.65
74750;BMP280;63269;53.330;-6.288;2023-07-29T07:10:48;99823.66;;;22.65
74750;BMP280;63269;53.330;-6.288;2023-07-29T07:13:13;99843.09;;;22.66
74750;BMP280;63269;53.330;-6.288;2023-07-29T07:15:38;99843.09;;;22.66
74750;BMP280;63269;53.330;-6.288;2023-07-29T07:18:04;99845.03;;;22.65
74750;BMP280;63269;53.330;-6.288;2023-07-29T07:20:29;99827.06;;;22.66
74750;BMP280;63269;53.330;-6.288;2023-07-29T07:22:55;99835.78;;;22.66
74750;BMP280;63269;53.330;-6.288;2023-07-29T07:25:20;99835.78;;;22.66
74750;BMP280;63269;53.330;-6.288;2023-07-29T07:27:46;99835.78;;;22.66
74750;BMP280;63269;53.330;-6.288;2023-07-29T07:30:11;99833.59;;;22.64
74750;BMP280;63269;53.330;-6.288;2023-07-29T07:32:37;99834.34;;;22.65
74750;BMP280;63269;53.330;-6.288;2023-07-29T07:35:03;99834.34;;;22.65
74750;BMP280;63269;53.330;-6.288;2023-07-29T07:37:29;99851.84;;;22.66
74750;BMP280;63269;53.330;-6.288;2023-07-29T07:39:54;99851.84;;;22.66
74750;BMP280;63269;53.330;-6.288;2023-07-29T07:42:20;99835.09;;;22.66
74750;BMP280;63269;53.330;-6.288;2023-07-29T07:44:45;99832.41;;;22.66
74750;BMP280;63269;53.330;-6.288;2023-07-29T07:47:10;99846.47;;;22.66
74750;BMP280;63269;53.330;-6.288;2023-07-29T07:49:36;99847.69;;;22.65
74750;BMP280;63269;53.330;-6.288;2023-07-29T07:52:01;99860.56;;;22.67
74750;BMP280;63269;53.330;-6.288;2023-07-29T07:54:27;99853.31;;;22.67
74750;BMP280;63269;53.330;-6.288;2023-07-29T07:56:52;99852.09;;;22.68
74750;BMP280;63269;53.330;-6.288;2023-07-29T07:59:17;99869.34;;;22.67
74750;BMP280;63269;53.330;-6.288;2023-07-29T08:01:43;99865.47;;;22.68
74750;BMP280;63269;53.330;-6.288;2023-07-29T08:04:08;99865.47;;;22.68
74750;BMP280;63269;53.330;-6.288;2023-07-29T08:06:34;99876.16;;;22.68
74750;BMP280;63269;53.330;-6.288;2023-07-29T08:09:00;99876.16;;;22.68
74750;BMP280;63269;53.330;-6.288;2023-07-29T08:11:26;99868.13;;;22.68
74750;BMP280;63269;53.330;-6.288;2023-07-29T08:13:51;99874.69;;;22.67
74750;BMP280;63269;53.330;-6.288;2023-07-29T08:16:17;99874.69;;;22.67
74750;BMP280;63269;53.330;-6.288;2023-07-29T08:18:42;99872.03;;;22.67
74750;BMP280;63269;53.330;-6.288;2023-07-29T08:21:08;99872.03;;;22.67
74750;BMP280;63269;53.330;-6.288;2023-07-29T08:23:34;99867.41;;;22.68
74750;BMP280;63269;53.330;-6.288;2023-07-29T08:26:03;99865.47;;;22.68
74750;BMP280;63269;53.330;-6.288;2023-07-29T08:28:34;99866.69;;;22.67
74750;BMP280;63269;53.330;-6.288;2023-07-29T08:30:59;99867.41;;;22.68
74750;BMP280;63269;53.330;-6.288;2023-07-29T08:33:25;99856.72;;;22.68
74750;BMP280;63269;53.330;-6.288;2023-07-29T08:35:51;99874.97;;;22.69
74750;BMP280;63269;53.330;-6.288;2023-07-29T08:38:17;99874.97;;;22.69
74750;BMP280;63269;53.330;-6.288;2023-07-29T08:40:45;99874.97;;;22.69
74750;BMP280;63269;53.330;-6.288;2023-07-29T08:43:14;99872.75;;;22.68
74750;BMP280;63269;53.330;-6.288;2023-07-29T08:45:41;99880.31;;;22.69
74750;BMP280;63269;53.330;-6.288;2023-07-29T08:48:10;99880.31;;;22.69
74750;BMP280;63269;53.330;-6.288;2023-07-29T08:50:36;99886.84;;;22.68
74750;BMP280;63269;53.330;-6.288;2023-07-29T08:53:04;99885.94;;;22.71
74750;BMP280;63269;53.330;-6.288;2023-07-29T08:55:31;99885.19;;;22.71
74750;BMP280;63269;53.330;-6.288;2023-07-29T08:57:58;99893.19;;;22.71
74750;BMP280;63269;53.330;-6.288;2023-07-29T09:00:25;99893.19;;;22.71
74750;BMP280;63269;53.330;-6.288;2023-07-29T09:02:51;99892.47;;;22.70
74750;BMP280;63269;53.330;-6.288;2023-07-29T09:05:17;99888.59;;;22.71
74750;BMP280;63269;53.330;-6.288;2023-07-29T09:07:44;99884.00;;;22.72
74750;BMP280;63269;53.330;-6.288;2023-07-29T09:10:10;99892.00;;;22.72
74750;BMP280;63269;53.330;-6.288;2023-07-29T09:12:39;99888.59;;;22.71
74750;BMP280;63269;53.330;-6.288;2023-07-29T09:15:05;99893.19;;;22.71
74750;BMP280;63269;53.330;-6.288;2023-07-29T09:17:34;99893.19;;;22.71
74750;BMP280;63269;53.330;-6.288;2023-07-29T09:19:59;99890.06;;;22.72
74750;BMP280;63269;53.330;-6.288;2023-07-29T09:22:26;99898.09;;;22.72
74750;BMP280;63269;53.330;-6.288;2023-07-29T09:24:52;99898.09;;;22.72
74750;BMP280;63269;53.330;-6.288;2023-07-29T09:27:28;99898.09;;;22.72
74750;BMP280;63269;53.330;-6.288;2023-07-29T09:29:55;99898.09;;;22.72
74750;BMP280;63269;53.330;-6.288;2023-07-29T09:32:23;99898.09;;;22.72
74750;BMP280;63269;53.330;-6.288;2023-07-29T09:34:48;99892.00;;;22.72
74750;BMP280;63269;53.330;-6.288;2023-07-29T09:37:21;99920.47;;;22.75
74750;BMP280;63269;53.330;-6.288;2023-07-29T09:39:47;99920.47;;;22.75
74750;BMP280;63269;53.330;-6.288;2023-07-29T09:42:21;99896.16;;;22.73
74750;BMP280;63269;53.330;-6.288;2023-07-29T09:44:48;99901.03;;;22.74
74750;BMP280;63269;53.330;-6.288;2023-07-29T09:47:21;99899.09;;;22.75
74750;BMP280;63269;53.330;-6.288;2023-07-29T09:49:47;99899.09;;;22.75
74750;BMP280;63269;53.330;-6.288;2023-07-29T09:52:15;99902.25;;;22.73
74750;BMP280;63269;53.330;-6.288;2023-07-29T09:54:43;99893.75;;;22.75
74750;BMP280;63269;53.330;-6.288;2023-07-29T09:57:08;99891.81;;;22.75
74750;BMP280;63269;53.330;-6.288;2023-07-29T09:59:34;99906.66;;;22.76
74750;BMP280;63269;53.330;-6.288;2023-07-29T10:01:59;99911.81;;;22.80
74750;BMP280;63269;53.330;-6.288;2023-07-29T10:04:25;99911.81;;;22.80
74750;BMP280;63269;53.330;-6.288;2023-07-29T10:06:52;99909.88;;;22.80
74750;BMP280;63269;53.330;-6.288;2023-07-29T10:09:18;99914.00;;;22.81
74750;BMP280;63269;53.330;-6.288;2023-07-29T10:11:45;99916.66;;;22.81
74750;BMP280;63269;53.330;-6.288;2023-07-29T10:14:11;99921.56;;;22.83
74750;BMP280;63269;53.330;-6.288;2023-07-29T10:16:37;99927.63;;;22.83
74750;BMP280;63269;53.330;-6.288;2023-07-29T10:19:04;99921.09;;;22.84
74750;BMP280;63269;53.330;-6.288;2023-07-29T10:21:30;99924.50;;;22.85
74750;BMP280;63269;53.330;-6.288;2023-07-29T10:24:00;99927.72;;;22.89
74750;BMP280;63269;53.330;-6.288;2023-07-29T10:26:28;99927.72;;;22.89
74750;BMP280;63269;53.330;-6.288;2023-07-29T10:28:55;99926.03;;;22.92
74750;BMP280;63269;53.330;-6.288;2023-07-29T10:31:27;99923.19;;;22.95
74750;BMP280;63269;53.330;-6.288;2023-07-29T10:33:54;99917.63;;;22.99
74750;BMP280;63269;53.330;-6.288;2023-07-29T10:36:20;99920.09;;;23.02
74750;BMP280;63269;53.330;-6.288;2023-07-29T10:38:46;99935.94;;;23.06
74750;BMP280;63269;53.330;-6.288;2023-07-29T10:41:11;99930.41;;;23.10
74750;BMP280;63269;53.330;-6.288;2023-07-29T10:43:37;99945.03;;;23.14
74750;BMP280;63269;53.330;-6.288;2023-07-29T10:48:44;99926.44;;;23.25
74750;BMP280;63269;53.330;-6.288;2023-07-29T10:53:59;99930.75;;;23.43
74750;BMP280;63269;53.330;-6.288;2023-07-29T10:58:56;99936.72;;;23.53
74750;BMP280;63269;53.330;-6.288;2023-07-29T11:01:29;99938.44;;;23.56
74750;BMP280;63269;53.330;-6.288;2023-07-29T11:07:18;99955.97;;;23.57
74750;BMP280;63269;53.330;-6.288;2023-07-29T11:12:39;99963.00;;;23.55
74750;BMP280;63269;53.330;-6.288;2023-07-29T11:15:15;99975.63;;;23.54
74750;BMP280;63269;53.330;-6.288;2023-07-29T11:20:07;99972.72;;;23.52
74750;BMP280;63269;53.330;-6.288;2023-07-29T11:22:34;99964.38;;;23.50
74750;BMP280;63269;53.330;-6.288;2023-07-29T11:24:59;99980.44;;;23.50
74750;BMP280;63269;53.330;-6.288;2023-07-29T11:27:25;99961.47;;;23.48
74750;BMP280;63269;53.330;-6.288;2023-07-29T11:29:50;99962.19;;;23.48
74750;BMP280;63269;53.330;-6.288;2023-07-29T11:32:21;99976.03;;;23.47
74750;BMP280;63269;53.330;-6.288;2023-07-29T11:34:46;99985.31;;;23.46
74750;BMP280;63269;53.330;-6.288;2023-07-29T11:37:12;99961.22;;;23.46
74750;BMP280;63269;53.330;-6.288;2023-07-29T11:39:41;99968.50;;;23.45
74750;BMP280;63269;53.330;-6.288;2023-07-29T11:42:07;99971.63;;;23.44
74750;BMP280;63269;53.330;-6.288;2023-07-29T11:44:32;99976.25;;;23.43
74750;BMP280;63269;53.330;-6.288;2023-07-29T11:46:57;99971.63;;;23.44
74750;BMP280;63269;53.330;-6.288;2023-07-29T11:49:23;99961.41;;;23.42
74750;BMP280;63269;53.330;-6.288;2023-07-29T11:51:48;99958.00;;;23.42
74750;BMP280;63269;53.330;-6.288;2023-07-29T11:54:15;99967.22;;;23.41
74750;BMP280;63269;53.330;-6.288;2023-07-29T11:56:41;99971.09;;;23.40
74750;BMP280;63269;53.330;-6.288;2023-07-29T11:59:06;99962.81;;;23.38
74750;BMP280;63269;53.330;-6.288;2023-07-29T12:03:58;99958.44;;;23.35
74750;BMP280;63269;53.330;-6.288;2023-07-29T12:06:24;99970.31;;;23.34
74750;BMP280;63269;53.330;-6.288;2023-07-29T12:08:50;99987.56;;;23.33
74750;BMP280;63269;53.330;-6.288;2023-07-29T12:11:16;99970.03;;;23.32
74750;BMP280;63269;53.330;-6.288;2023-07-29T12:13:42;99973.19;;;23.30
74750;BMP280;63269;53.330;-6.288;2023-07-29T12:16:08;99993.88;;;23.30
74750;BMP280;63269;53.330;-6.288;2023-07-29T12:18:33;99966.38;;;23.29
74750;BMP280;63269;53.330;-6.288;2023-07-29T12:20:59;99963.69;;;23.29
74750;BMP280;63269;53.330;-6.288;2023-07-29T12:23:25;99972.16;;;23.27
74750;BMP280;63269;53.330;-6.288;2023-07-29T12:25:58;99959.53;;;23.28
74750;BMP280;63269;53.330;-6.288;2023-07-29T12:28:24;99973.41;;;23.26
74750;BMP280;63269;53.330;-6.288;2023-07-29T12:30:56;99963.44;;;23.27
74750;BMP280;63269;53.330;-6.288;2023-07-29T12:33:33;99958.09;;;23.27
74750;BMP280;63269;53.330;-6.288;2023-07-29T12:35:58;99947.84;;;23.25
74750;BMP280;63269;53.330;-6.288;2023-07-29T12:38:27;99952.00;;;23.26
74750;BMP280;63269;53.330;-6.288;2023-07-29T12:40:53;99972.66;;;23.26
74750;BMP280;63269;53.330;-6.288;2023-07-29T12:43:19;99951.25;;;23.26
74750;BMP280;63269;53.330;-6.288;2023-07-29T12:45:44;99950.75;;;23.27
74750;BMP280;63269;53.330;-6.288;2023-07-29T12:48:10;99948.06;;;23.27
74750;BMP280;63269;53.330;-6.288;2023-07-29T12:50:36;99953.44;;;23.27
74750;BMP280;63269;53.330;-6.288;2023-07-29T12:53:02;99961.75;;;23.30
74750;BMP280;63269;53.330;-6.288;2023-07-29T12:55:27;99973.94;;;23.31
74750;BMP280;63269;53.330;-6.288;2023-07-29T12:57:53;99997.53;;;23.32
74750;BMP280;63269;53.330;-6.288;2023-07-29T13:00:18;100005.56;;;23.32
74750;BMP280;63269;53.330;-6.288;2023-07-29T13:02:43;100003.63;;;23.33
74750;BMP280;63269;53.330;-6.288;2023-07-29T13:05:10;99999.75;;;23.34
74750;BMP280;63269;53.330;-6.288;2023-07-29T13:07:37;100003.63;;;23.33
74750;BMP280;63269;53.330;-6.288;2023-07-29T13:10:03;100001.66;;;23.33
74750;BMP280;63269;53.330;-6.288;2023-07-29T13:12:28;99999.75;;;23.34
74750;BMP280;63269;53.330;-6.288;2023-07-29T13:14:54;100008.97;;;23.33
74750;BMP280;63269;53.330;-6.288;2023-07-29T13:17:19;100001.66;;;23.33
74750;BMP280;63269;53.330;-6.288;2023-07-29T13:19:45;100002.44;;;23.34
74750;BMP280;63269;53.330;-6.288;2023-07-29T13:22:11;100009.69;;;23.33
74750;BMP280;63269;53.330;-6.288;2023-07-29T13:24:36;100008.97;;;23.33
74750;BMP280;63269;53.330;-6.288;2023-07-29T13:27:02;100012.38;;;23.33
74750;BMP280;63269;53.330;-6.288;2023-07-29T13:29:28;100003.91;;;23.35
74750;BMP280;63269;53.330;-6.288;2023-07-29T13:31:53;100005.09;;;23.34
74750;BMP280;63269;53.330;-6.288;2023-07-29T13:34:18;99994.41;;;23.34
74750;BMP280;63269;53.330;-6.288;2023-07-29T13:36:44;100008.50;;;23.34
74750;BMP280;63269;53.330;-6.288;2023-07-29T13:39:09;100013.88;;;23.34
74750;BMP280;63269;53.330;-6.288;2023-07-29T13:41:34;100016.53;;;23.34
74750;BMP280;63269;53.330;-6.288;2023-07-29T13:44:00;100016.53;;;23.34
74750;BMP280;63269;53.330;-6.288;2023-07-29T13:46:25;100013.13;;;23.34
74750;BMP280;63269;53.330;-6.288;2023-07-29T13:48:51;100012.38;;;23.33
74750;BMP280;63269;53.330;-6.288;2023-07-29T13:51:16;100036.47;;;23.33
74750;BMP280;63269;53.330;-6.288;2023-07-29T13:53:41;100003.63;;;23.33
74750;BMP280;63269;53.330;-6.288;2023-07-29T13:56:07;100003.63;;;23.33
74750;BMP280;63269;53.330;-6.288;2023-07-29T13:58:32;100022.34;;;23.33
74750;BMP280;63269;53.330;-6.288;2023-07-29T14:00:57;100022.34;;;23.33
74750;BMP280;63269;53.330;-6.288;2023-07-29T14:03:23;100029.66;;;23.32
74750;BMP280;63269;53.330;-6.288;2023-07-29T14:05:48;100010.16;;;23.32
74750;BMP280;63269;53.330;-6.288;2023-07-29T14:08:14;100030.38;;;23.33
74750;BMP280;63269;53.330;-6.288;2023-07-29T14:10:39;100030.38;;;23.33
74750;BMP280;63269;53.330;-6.288;2023-07-29T14:13:06;100016.28;;;23.32
74750;BMP280;63269;53.330;-6.288;2023-07-29T14:15:31;100013.59;;;23.32
74750;BMP280;63269;53.330;-6.288;2023-07-29T14:17:58;100021.63;;;23.32